Time;durP1;ratioP1;P1;durP2;ratioP2;P2;SDS_P1;SDS_P2;PMS_P1;PMS_P2;Temp;Humidity;BMP_temperature;BMP_pressure;BME280_temperature;BME280_humidity;BME280_pressure;Samples;Min_cycle;Max_cycle;Signal;HPM_P1;HPM_P2
2022/07/23 00:00:08;;;;;;;2.42;1.58;;;16.40;99.90;;;;;;4999420;28;20022;-71
2022/07/23 00:02:34;;;;;;;2.75;1.70;;;16.30;99.90;;;;;;4990493;28;20038;-71
2022/07/23 00:05:00;;;;;;;2.38;1.50;;;16.40;99.90;;;;;;5004250;28;20077;-70
2022/07/23 00:07:25;;;;;;;4.18;2.05;;;16.20;99.90;;;;;;4974028;28;20077;-70
2022/07/23 00:09:51;;;;;;;3.88;1.52;;;16.20;99.90;;;;;;4997235;28;20040;-70
2022/07/23 00:12:16;;;;;;;2.63;2.10;;;16.10;99.90;;;;;;4994387;28;20034;-70
2022/07/23 00:14:42;;;;;;;5.97;2.20;;;16.10;99.90;;;;;;4992943;28;20034;-71
2022/07/23 00:17:07;;;;;;;2.85;1.90;;;16.10;99.90;;;;;;4995683;28;20048;-71
2022/07/23 00:19:33;;;;;;;4.63;1.95;;;16.10;99.90;;;;;;4997585;28;20034;-71
2022/07/23 00:21:58;;;;;;;3.28;2.15;;;15.90;99.90;;;;;;4998002;28;20030;-71
2022/07/23 00:24:24;;;;;;;4.35;2.47;;;16.00;99.90;;;;;;4989932;28;20058;-70
2022/07/23 00:26:51;;;;;;;3.35;2.05;;;16.00;99.90;;;;;;4993963;28;20042;-71
2022/07/23 00:29:16;;;;;;;3.63;1.80;;;15.90;99.90;;;;;;4992155;28;20023;-71
2022/07/23 00:31:42;;;;;;;6.40;2.10;;;16.00;99.90;;;;;;5002289;28;20033;-70
2022/07/23 00:34:07;;;;;;;4.65;2.53;;;15.80;99.90;;;;;;4990439;28;20113;-70
2022/07/23 00:36:33;;;;;;;3.03;2.10;;;15.70;99.90;;;;;;4990450;28;20113;-70
2022/07/23 00:38:58;;;;;;;3.10;2.80;;;15.70;99.90;;;;;;4990101;28;20038;-70
2022/07/23 00:41:24;;;;;;;5.40;2.30;;;15.80;99.90;;;;;;4989673;28;20479;-71
2022/07/23 00:43:49;;;;;;;2.20;2.00;;;15.80;99.90;;;;;;4989399;28;20042;-71
2022/07/23 00:46:25;;;;;;;6.55;2.20;;;15.60;99.90;;;;;;4990302;28;20063;-70
2022/07/23 00:48:50;;;;;;;5.07;2.45;;;15.70;99.90;;;;;;4979697;28;20447;-70
2022/07/23 00:51:16;;;;;;;4.60;2.85;;;15.60;99.90;;;;;;4987141;28;20026;-70
2022/07/23 00:53:42;;;;;;;2.60;2.38;;;15.60;99.90;;;;;;4990516;28;20034;-71
2022/07/23 00:56:08;;;;;;;5.30;3.20;;;15.60;99.90;;;;;;4989697;28;20114;-71
2022/07/23 00:58:35;;;;;;;3.83;2.33;;;15.60;99.90;;;;;;4989847;28;20125;-70
2022/07/23 01:01:01;;;;;;;3.28;2.20;;;15.50;99.90;;;;;;4990413;28;20037;-70
2022/07/23 01:03:27;;;;;;;8.60;2.55;;;;;;;;;;4994339;28;20042;-71
2022/07/23 01:05:53;;;;;;;2.95;2.47;;;15.50;99.90;;;;;;4990418;28;20033;-70
2022/07/23 01:08:19;;;;;;;3.40;2.47;;;15.50;99.90;;;;;;4992717;28;20087;-71
2022/07/23 01:10:45;;;;;;;4.43;2.83;;;15.50;99.90;;;;;;4983278;28;20433;-70
2022/07/23 01:13:11;;;;;;;3.20;2.80;;;15.40;99.90;;;;;;4994629;28;20026;-70
2022/07/23 01:15:37;;;;;;;3.67;3.22;;;15.50;99.90;;;;;;4981546;28;20026;-70
2022/07/23 01:18:05;;;;;;;6.40;3.28;;;15.10;99.90;;;;;;4989681;28;20046;-70
2022/07/23 01:20:32;;;;;;;5.75;2.47;;;15.70;99.90;;;;;;4989765;28;20483;-70
2022/07/23 01:22:58;;;;;;;5.05;3.20;;;;;;;;;;4989058;28;20455;-70
2022/07/23 01:25:24;;;;;;;5.55;2.92;;;15.30;99.90;;;;;;4989668;28;20105;-70
2022/07/23 01:27:52;;;;;;;3.25;2.75;;;15.10;99.90;;;;;;4989635;28;20529;-70
2022/07/23 01:30:17;;;;;;;3.47;2.65;;;15.30;99.90;;;;;;4981078;28;20114;-71
2022/07/23 01:32:43;;;;;;;3.20;2.90;;;15.30;99.90;;;;;;4989137;28;20157;-70
2022/07/23 01:35:09;;;;;;;5.25;2.90;;;15.30;99.90;;;;;;4990095;28;20034;-70
2022/07/23 01:37:36;;;;;;;3.67;3.10;;;15.30;99.90;;;;;;4992168;28;20490;-70
2022/07/23 01:40:02;;;;;;;4.45;2.63;;;15.20;99.90;;;;;;5001845;28;20131;-70
2022/07/23 01:42:28;;;;;;;4.15;3.17;;;15.10;99.90;;;;;;4997568;28;20036;-70
2022/07/23 01:44:54;;;;;;;4.55;3.40;;;;;;;;;;4993822;28;20022;-70
2022/07/23 01:47:19;;;;;;;3.25;2.78;;;15.10;99.90;;;;;;4981752;28;20055;-70
2022/07/23 01:49:45;;;;;;;5.03;3.22;;;15.00;99.90;;;;;;4989574;28;20026;-70
2022/07/23 01:52:10;;;;;;;6.38;2.92;;;15.20;99.90;;;;;;4983875;28;20030;-70
2022/07/23 01:54:37;;;;;;;5.05;3.10;;;15.10;99.90;;;;;;4994012;28;20034;-71
2022/07/23 01:57:03;;;;;;;3.67;3.22;;;15.10;99.90;;;;;;5003329;28;20057;-70
2022/07/23 01:59:29;;;;;;;3.10;2.90;;;15.10;99.90;;;;;;5000399;28;20459;-70
2022/07/23 02:01:55;;;;;;;4.18;3.78;;;15.10;99.90;;;;;;5005809;28;20057;-70
2022/07/23 02:04:22;;;;;;;4.40;3.50;;;15.10;99.90;;;;;;4980486;28;20065;-70
2022/07/23 02:06:48;;;;;;;3.65;3.05;;;15.00;99.90;;;;;;4993817;28;20021;-70
2022/07/23 02:09:14;;;;;;;3.72;3.17;;;15.00;99.90;;;;;;4992825;28;20041;-71
2022/07/23 02:11:40;;;;;;;4.90;3.38;;;14.90;99.90;;;;;;4998558;28;20430;-70
2022/07/23 02:14:06;;;;;;;2.92;2.63;;;15.00;99.90;;;;;;4993331;28;20040;-71
2022/07/23 02:16:34;;;;;;;4.78;2.95;;;14.90;99.90;;;;;;4989773;28;20480;-71
2022/07/23 02:19:00;;;;;;;3.67;2.75;;;14.80;99.90;;;;;;4992752;28;20361;-70
2022/07/23 02:21:25;;;;;;;7.65;3.38;;;14.80;99.90;;;;;;4986218;28;20072;-71
2022/07/23 02:23:50;;;;;;;4.80;3.33;;;14.70;99.90;;;;;;5002164;28;20621;-70
2022/07/23 02:26:16;;;;;;;4.45;3.97;;;14.60;99.90;;;;;;4988865;28;20026;-70
2022/07/23 02:28:42;;;;;;;4.45;4.05;;;14.60;99.90;;;;;;4984433;28;20030;-71
2022/07/23 02:31:07;;;;;;;6.22;3.40;;;14.60;99.90;;;;;;4993814;28;20026;-70
2022/07/23 02:33:34;;;;;;;6.07;3.45;;;14.40;99.90;;;;;;4986740;28;20062;-70
2022/07/23 02:36:00;;;;;;;5.15;3.28;;;14.70;99.90;;;;;;4991967;28;20026;-70
2022/07/23 02:38:25;;;;;;;5.18;2.83;;;14.60;99.90;;;;;;4992674;28;20057;-70
2022/07/23 02:40:51;;;;;;;3.55;2.90;;;14.70;99.90;;;;;;4980994;28;20022;-70
2022/07/23 02:43:16;;;;;;;3.72;3.15;;;14.60;99.90;;;;;;4993406;28;20038;-70
2022/07/23 02:45:42;;;;;;;4.30;3.42;;;14.60;99.90;;;;;;4992374;28;20497;-70
2022/07/23 02:48:08;;;;;;;6.25;3.65;;;;;;;;;;4991016;28;20080;-70
2022/07/23 02:50:33;;;;;;;3.78;3.20;;;14.50;99.90;;;;;;4991471;28;20041;-70
2022/07/23 02:52:59;;;;;;;4.40;3.38;;;14.60;99.90;;;;;;4991433;28;20447;-70
2022/07/23 02:55:25;;;;;;;6.85;2.80;;;14.40;99.90;;;;;;4991861;28;20109;-70
2022/07/23 02:57:50;;;;;;;4.43;2.85;;;14.50;99.90;;;;;;4995535;28;20420;-70
2022/07/23 03:00:16;;;;;;;3.90;3.13;;;14.50;99.90;;;;;;4998000;28;20018;-70
2022/07/23 03:02:42;;;;;;;4.35;2.85;;;14.40;99.90;;;;;;4992402;28;20507;-69
2022/07/23 03:05:08;;;;;;;4.60;2.55;;;14.50;99.90;;;;;;4994957;28;20018;-70
2022/07/23 03:07:33;;;;;;;3.95;2.60;;;14.50;99.90;;;;;;4992650;28;20038;-70
2022/07/23 03:09:59;;;;;;;3.65;2.70;;;14.40;99.90;;;;;;4997368;28;20113;-70
2022/07/23 03:12:25;;;;;;;4.07;2.65;;;;;;;;;;4979573;28;20395;-70
2022/07/23 03:14:50;;;;;;;4.55;2.67;;;14.30;99.90;;;;;;4997089;28;20081;-70
2022/07/23 03:17:16;;;;;;;4.18;2.80;;;14.30;99.90;;;;;;4996199;28;20038;-69
2022/07/23 03:19:42;;;;;;;4.78;3.05;;;;;;;;;;4996898;28;20038;-69
2022/07/23 03:22:08;;;;;;;4.85;2.55;;;14.10;99.90;;;;;;4996950;28;20425;-69
2022/07/23 03:27:18;;;;;;;2.95;2.65;;;14.30;99.90;;;;;;4991242;28;20080;-70
2022/07/23 03:29:43;;;;;;;5.85;2.40;;;14.40;99.90;;;;;;4991670;28;20035;-70
2022/07/23 03:32:09;;;;;;;5.07;3.03;;;;;;;;;;5004946;28;20108;-70
2022/07/23 03:34:35;;;;;;;3.25;2.22;;;14.40;99.90;;;;;;4991734;28;20022;-70
2022/07/23 03:37:01;;;;;;;3.15;2.42;;;14.50;99.90;;;;;;4991538;28;20076;-70
2022/07/23 03:39:27;;;;;;;3.00;2.67;;;14.50;99.90;;;;;;4991217;28;20034;-70
2022/07/23 03:41:53;;;;;;;3.88;2.63;;;;;;;;;;4991453;28;20022;-69
2022/07/23 03:44:18;;;;;;;3.00;2.55;;;14.50;99.90;;;;;;4991122;28;20030;-70
2022/07/23 03:46:44;;;;;;;3.22;2.55;;;14.30;99.90;;;;;;4991706;28;20121;-70
2022/07/23 03:49:10;;;;;;;4.80;2.72;;;;;;;;;;4978465;28;20042;-70
2022/07/23 03:51:35;;;;;;;3.90;2.30;;;14.40;99.90;;;;;;4990715;28;20038;-70
2022/07/23 03:54:01;;;;;;;3.42;2.80;;;14.30;99.90;;;;;;4980649;28;20066;-69
2022/07/23 03:56:26;;;;;;;3.80;2.78;;;14.30;99.90;;;;;;4988126;28;20045;-70
2022/07/23 03:58:52;;;;;;;3.20;2.28;;;;;;;;;;4991122;28;20093;-70
2022/07/23 04:01:18;;;;;;;6.40;2.47;;;14.20;99.90;;;;;;4989041;28;20030;-70
2022/07/23 04:03:43;;;;;;;5.85;2.58;;;14.20;99.90;;;;;;4980459;28;20042;-70
2022/07/23 04:06:09;;;;;;;6.45;2.53;;;;;;;;;;4985602;28;20030;-70
2022/07/23 04:08:35;;;;;;;3.15;2.58;;;;;;;;;;5001000;28;20038;-70
2022/07/23 04:11:00;;;;;;;4.40;2.90;;;14.20;99.90;;;;;;4991090;28;20030;-70
2022/07/23 04:13:26;;;;;;;5.78;2.78;;;;;;;;;;4993694;28;20036;-70
2022/07/23 04:15:52;;;;;;;4.80;2.70;;;14.10;99.90;;;;;;4997619;28;20102;-70
2022/07/23 04:18:18;;;;;;;2.33;2.13;;;14.00;99.90;;;;;;4996741;28;20070;-70
2022/07/23 04:20:44;;;;;;;2.40;2.20;;;14.10;99.90;;;;;;4995932;28;20106;-70
2022/07/23 04:23:10;;;;;;;2.50;2.30;;;14.10;99.90;;;;;;4988973;28;20092;-70
2022/07/23 04:25:36;;;;;;;3.28;2.55;;;14.20;99.90;;;;;;4995003;28;20030;-70
2022/07/23 04:28:02;;;;;;;4.25;2.00;;;13.80;99.90;;;;;;4990821;28;20029;-70
2022/07/23 04:30:28;;;;;;;3.20;2.88;;;;;;;;;;4987591;28;20125;-70
2022/07/23 04:32:53;;;;;;;3.58;2.35;;;14.30;99.90;;;;;;4977331;28;20022;-70
2022/07/23 04:35:19;;;;;;;7.85;2.60;;;14.30;99.90;;;;;;4990161;28;20034;-70
2022/07/23 04:37:44;;;;;;;4.57;2.30;;;14.30;99.90;;;;;;4990228;28;20042;-70
2022/07/23 04:40:11;;;;;;;2.83;2.45;;;14.30;99.90;;;;;;4990183;28;20069;-70
2022/07/23 04:42:37;;;;;;;2.47;2.17;;;14.30;99.90;;;;;;4990348;28;20431;-70
2022/07/23 04:45:03;;;;;;;5.57;2.10;;;14.30;99.90;;;;;;4990754;28;20023;-70
2022/07/23 04:47:29;;;;;;;3.33;2.30;;;14.40;99.90;;;;;;4976940;28;20061;-70
2022/07/23 04:49:55;;;;;;;3.08;2.28;;;14.40;99.90;;;;;;4971380;28;20109;-70
2022/07/23 04:52:20;;;;;;;4.13;2.72;;;14.40;99.90;;;;;;4982152;28;20479;-70
2022/07/23 04:54:46;;;;;;;4.88;2.25;;;;;;;;;;4988856;28;20037;-70
2022/07/23 04:57:12;;;;;;;3.13;2.13;;;14.50;99.90;;;;;;4990118;28;20030;-70
2022/07/23 04:59:37;;;;;;;2.10;1.90;;;14.60;99.90;;;;;;4989913;28;20062;-70
2022/07/23 05:02:03;;;;;;;4.32;2.20;;;14.60;99.90;;;;;;4989927;28;20037;-70
2022/07/23 05:04:28;;;;;;;6.97;2.95;;;14.30;99.90;;;;;;4984081;28;20065;-70
2022/07/23 05:06:54;;;;;;;5.60;2.22;;;;;;;;;;4995176;28;20030;-69
2022/07/23 05:09:20;;;;;;;4.80;2.25;;;14.70;99.90;;;;;;4993491;28;20027;-70
2022/07/23 05:11:45;;;;;;;3.42;2.78;;;14.80;99.90;;;;;;4994308;28;20108;-69
2022/07/23 05:14:12;;;;;;;4.07;2.45;;;14.90;99.90;;;;;;4995537;28;20023;-70
2022/07/23 05:16:38;;;;;;;5.03;2.38;;;14.80;99.90;;;;;;4994052;28;20041;-69
2022/07/23 05:19:04;;;;;;;4.55;2.67;;;15.20;99.90;;;;;;4997001;28;20034;-70
2022/07/23 05:21:29;;;;;;;5.20;3.03;;;;;;;;;;4983061;28;20061;-70
2022/07/23 05:23:55;;;;;;;3.88;2.22;;;15.00;99.90;;;;;;4988100;28;20133;-69
2022/07/23 05:26:20;;;;;;;3.35;2.15;;;15.10;99.90;;;;;;4982037;28;20022;-70
2022/07/23 05:28:46;;;;;;;5.05;2.33;;;15.20;99.90;;;;;;4988842;28;20482;-69
2022/07/23 05:31:12;;;;;;;2.38;2.00;;;15.10;99.90;;;;;;4996033;28;20423;-70
2022/07/23 05:33:37;;;;;;;5.90;2.00;;;15.40;99.90;;;;;;4997842;28;20042;-70
2022/07/23 05:36:03;;;;;;;2.70;2.08;;;15.50;99.90;;;;;;4987123;28;20019;-69
2022/07/23 05:38:30;;;;;;;4.30;2.13;;;14.90;99.90;;;;;;4992989;28;20496;-69
2022/07/23 05:40:55;;;;;;;2.78;1.77;;;15.50;99.90;;;;;;4980395;28;20045;-70
2022/07/23 05:43:21;;;;;;;6.63;2.20;;;15.70;99.90;;;;;;4993601;28;20488;-70
2022/07/23 05:45:47;;;;;;;3.63;2.00;;;15.60;99.90;;;;;;4993962;28;20053;-70
2022/07/23 05:48:12;;;;;;;3.72;2.08;;;15.80;99.90;;;;;;5004655;28;20157;-70
2022/07/23 05:50:38;;;;;;;4.97;2.25;;;16.10;99.90;;;;;;4993904;28;20479;-70
2022/07/23 05:53:04;;;;;;;5.15;2.42;;;15.80;99.90;;;;;;4993174;28;20022;-70
2022/07/23 05:55:31;;;;;;;3.60;2.05;;;15.90;99.90;;;;;;4993230;28;20030;-70
2022/07/23 05:57:57;;;;;;;2.35;1.92;;;15.90;99.90;;;;;;4993142;28;20074;-70
2022/07/23 06:00:23;;;;;;;2.40;1.65;;;16.00;99.90;;;;;;4993405;28;20042;-70
2022/07/23 06:02:49;;;;;;;7.57;2.30;;;;;;;;;;4991845;28;20120;-70
2022/07/23 06:05:15;;;;;;;8.40;2.20;;;16.70;99.90;;;;;;4992403;28;20442;-70
2022/07/23 06:07:40;;;;;;;6.38;2.33;;;16.00;99.90;;;;;;4997379;28;20034;-70
2022/07/23 06:10:06;;;;;;;6.18;1.80;;;16.10;99.90;;;;;;5002152;28;20028;-69
2022/07/23 06:12:32;;;;;;;3.65;1.65;;;16.20;99.90;;;;;;4993867;28;20023;-70
2022/07/23 06:14:58;;;;;;;4.32;1.98;;;16.40;99.90;;;;;;4993357;28;20022;-69
2022/07/23 06:17:24;;;;;;;2.53;1.23;;;16.60;99.90;;;;;;4997631;28;20073;-69
2022/07/23 06:19:49;;;;;;;2.20;1.60;;;16.40;99.90;;;;;;4986044;28;20039;-70
2022/07/23 06:22:15;;;;;;;5.55;1.70;;;16.20;99.90;;;;;;4991973;28;20125;-70
2022/07/23 06:24:40;;;;;;;3.42;1.58;;;16.60;99.90;;;;;;4992439;28;20080;-70
2022/07/23 06:27:06;;;;;;;4.95;1.42;;;16.50;99.90;;;;;;4996877;28;20034;-70
2022/07/23 06:29:32;;;;;;;2.28;2.00;;;16.80;99.90;;;;;;4987738;28;20027;-69
2022/07/23 06:31:57;;;;;;;4.28;2.03;;;17.90;99.90;;;;;;5000389;28;20507;-69
2022/07/23 06:34:23;;;;;;;2.38;1.80;;;16.80;99.90;;;;;;4994751;28;20037;-70
2022/07/23 06:36:48;;;;;;;2.45;1.83;;;16.70;99.90;;;;;;4992025;28;20034;-70
2022/07/23 06:39:14;;;;;;;2.60;1.67;;;17.90;99.90;;;;;;4992244;28;20054;-70
2022/07/23 06:41:39;;;;;;;2.13;1.60;;;16.80;99.90;;;;;;4992451;28;20442;-70
2022/07/23 06:44:05;;;;;;;2.35;1.45;;;16.90;99.90;;;;;;4992679;28;20036;-70
2022/07/23 06:46:31;;;;;;;2.58;1.50;;;17.00;99.90;;;;;;4992506;28;20116;-70
2022/07/23 06:48:56;;;;;;;4.72;2.00;;;17.10;99.90;;;;;;4992782;28;20478;-70
2022/07/23 06:51:22;;;;;;;4.63;1.73;;;17.10;99.90;;;;;;4991687;28;20045;-70
2022/07/23 06:53:47;;;;;;;2.78;1.60;;;17.20;99.90;;;;;;4985481;28;20038;-70
2022/07/23 06:56:13;;;;;;;2.90;2.00;;;17.30;99.90;;;;;;4980914;28;20387;-70
2022/07/23 06:58:38;;;;;;;4.85;2.35;;;17.30;99.90;;;;;;4995373;28;20058;-70
2022/07/23 07:01:04;;;;;;;3.45;2.05;;;17.40;99.90;;;;;;4991071;28;20032;-70
2022/07/23 07:03:29;;;;;;;2.92;2.05;;;17.40;99.90;;;;;;4998146;28;20037;-70
2022/07/23 07:05:57;;;;;;;4.35;2.05;;;17.40;99.90;;;;;;5003507;28;20077;-70
2022/07/23 07:08:23;;;;;;;3.75;2.20;;;17.50;99.90;;;;;;5003574;28;20121;-70
2022/07/23 07:10:48;;;;;;;4.28;1.98;;;17.50;99.90;;;;;;4991562;28;20121;-70
2022/07/23 07:13:14;;;;;;;2.42;1.90;;;17.40;99.90;;;;;;4997291;28;20027;-72
2022/07/23 07:15:39;;;;;;;4.95;1.88;;;17.60;99.90;;;;;;4992022;28;20110;-72
2022/07/23 07:18:05;;;;;;;3.85;1.90;;;17.60;99.90;;;;;;4992126;28;20125;-71
2022/07/23 07:20:30;;;;;;;4.95;2.00;;;17.60;99.90;;;;;;4996302;28;20458;-71
2022/07/23 07:22:56;;;;;;;3.22;1.80;;;18.50;99.90;;;;;;4991723;28;20146;-71
2022/07/23 07:25:21;;;;;;;3.55;1.60;;;17.70;99.90;;;;;;4995060;28;20038;-72
2022/07/23 07:27:47;;;;;;;3.70;1.70;;;18.10;99.90;;;;;;4992829;28;20050;-72
2022/07/23 07:30:15;;;;;;;3.67;1.80;;;17.90;99.90;;;;;;4991421;28;20026;-72
2022/07/23 07:32:40;;;;;;;2.53;2.13;;;18.00;99.90;;;;;;4992352;28;20046;-72
2022/07/23 07:35:07;;;;;;;5.03;2.08;;;18.10;99.90;;;;;;4993776;28;20110;-72
2022/07/23 07:37:32;;;;;;;2.63;1.67;;;18.20;99.90;;;;;;4991135;28;20030;-71
2022/07/23 07:39:58;;;;;;;4.55;1.10;;;17.70;99.90;;;;;;4999155;28;20502;-72
2022/07/23 07:42:23;;;;;;;2.25;1.58;;;18.20;99.90;;;;;;5004635;28;20038;-71
2022/07/23 07:44:49;;;;;;;3.70;1.88;;;18.40;99.90;;;;;;4992369;28;20057;-72
2022/07/23 07:47:15;;;;;;;3.45;1.80;;;18.60;99.90;;;;;;4991814;28;20368;-71
2022/07/23 07:49:41;;;;;;;3.70;1.58;;;18.50;99.90;;;;;;4990603;28;20026;-72
2022/07/23 07:52:07;;;;;;;2.83;1.67;;;18.70;99.90;;;;;;4991840;28;20029;-72
2022/07/23 07:54:33;;;;;;;3.88;1.20;;;18.80;99.90;;;;;;5003140;28;20018;-71
2022/07/23 07:56:59;;;;;;;2.35;1.83;;;18.80;99.90;;;;;;4991097;28;20113;-71
2022/07/23 07:59:25;;;;;;;4.82;1.80;;;18.90;99.80;;;;;;4994376;28;20073;-72
2022/07/23 08:01:50;;;;;;;3.03;1.73;;;19.00;99.60;;;;;;4996572;28;20029;-71
2022/07/23 08:04:16;;;;;;;4.00;1.85;;;19.00;99.20;;;;;;4990046;28;20034;-72
2022/07/23 08:06:41;;;;;;;2.20;1.63;;;19.20;99.20;;;;;;4990591;28;20092;-71
2022/07/23 08:09:07;;;;;;;2.08;1.52;;;19.00;98.90;;;;;;4986236;28;20030;-71
2022/07/23 08:11:33;;;;;;;2.47;1.30;;;19.10;98.80;;;;;;4992036;28;20034;-71
2022/07/23 08:13:58;;;;;;;2.97;1.52;;;19.10;98.60;;;;;;4989583;28;20081;-70
2022/07/23 08:16:24;;;;;;;3.92;1.70;;;21.10;98.90;;;;;;4992052;28;20452;-71
2022/07/23 08:18:49;;;;;;;2.20;1.83;;;19.20;98.20;;;;;;4997880;28;20035;-72
2022/07/23 08:21:15;;;;;;;3.90;1.70;;;19.20;98.00;;;;;;4995886;28;20475;-71
2022/07/23 08:23:40;;;;;;;2.95;1.50;;;19.50;97.90;;;;;;4990256;28;20506;-71
2022/07/23 08:26:06;;;;;;;3.28;1.65;;;19.50;97.80;;;;;;4990721;28;20530;-72
2022/07/23 08:28:32;;;;;;;4.95;1.55;;;19.40;97.80;;;;;;4990378;28;20536;-72
2022/07/23 08:30:59;;;;;;;1.98;1.20;;;19.50;97.90;;;;;;4976531;28;20565;-72
2022/07/23 08:33:24;;;;;;;1.77;1.10;;;19.60;97.90;;;;;;4999727;28;20023;-72
2022/07/23 08:35:52;;;;;;;4.90;1.50;;;19.90;97.50;;;;;;4990673;28;20502;-71
2022/07/23 08:38:19;;;;;;;4.13;1.85;;;19.80;97.50;;;;;;4990552;28;20093;-72
2022/07/23 08:40:47;;;;;;;3.03;1.85;;;19.90;97.20;;;;;;4990301;28;20041;-71
2022/07/23 08:43:16;;;;;;;5.43;2.05;;;19.70;97.10;;;;;;4977031;28;20030;-71
2022/07/23 08:45:44;;;;;;;1.60;1.20;;;19.80;97.30;;;;;;4990397;28;20023;-71
2022/07/23 08:48:15;;;;;;;3.70;1.92;;;19.90;97.30;;;;;;4989864;28;20026;-71
2022/07/23 08:50:44;;;;;;;2.50;1.17;;;20.00;97.30;;;;;;4990433;28;20104;-71
2022/07/23 08:53:10;;;;;;;2.72;1.10;;;19.90;97.10;;;;;;4990323;28;20030;-71
2022/07/23 08:55:35;;;;;;;3.08;1.58;;;20.00;96.80;;;;;;4990598;28;20022;-72
2022/07/23 08:58:02;;;;;;;4.43;1.20;;;21.50;96.90;;;;;;4990202;28;20057;-71
2022/07/23 09:00:27;;;;;;;4.47;1.40;;;20.20;96.60;;;;;;4989826;28;20050;-71
2022/07/23 09:02:53;;;;;;;3.78;1.90;;;20.30;96.50;;;;;;4990181;28;20034;-71
2022/07/23 09:05:19;;;;;;;2.58;1.25;;;20.20;96.10;;;;;;4990650;28;20030;-71
2022/07/23 09:08:07;;;;;;;3.65;1.45;;;20.10;99.90;;;;;;4990202;28;20030;-73
2022/07/23 09:11:00;;;;;;;2.35;2.15;;;20.20;95.90;;;;;;4977474;28;20071;-72
2022/07/23 09:13:31;;;;;;;1.92;1.77;;;20.20;99.90;;;;;;4985385;28;20486;-71
2022/07/23 09:16:10;;;;;;;1.55;1.45;;;20.10;95.70;;;;;;4989720;28;20027;-71
2022/07/23 09:18:43;;;;;;;2.90;1.92;;;20.20;96.40;;;;;;4989981;28;20503;-73
2022/07/23 09:21:28;;;;;;;3.50;1.77;;;20.40;95.60;;;;;;4990244;28;20487;-73
2022/07/23 09:23:56;;;;;;;5.30;1.00;;;20.40;95.50;;;;;;4989620;28;20073;-72
2022/07/23 09:26:25;;;;;;;2.58;1.20;;;20.50;94.90;;;;;;4990042;28;20018;-72
2022/07/23 09:29:03;;;;;;;2.45;1.30;;;20.50;95.70;;;;;;4990033;28;20034;-71
2022/07/23 09:31:44;;;;;;;3.92;1.58;;;20.70;94.80;;;;;;4996814;28;20014;-71
2022/07/23 09:34:23;;;;;;;2.97;1.15;;;20.60;95.30;;;;;;4995587;28;20031;-71
2022/07/23 09:36:53;;;;;;;1.77;0.88;;;20.80;94.60;;;;;;4999907;28;20038;-71
2022/07/23 09:39:32;;;;;;;2.78;0.90;;;20.70;95.10;;;;;;4971372;28;20475;-71
2022/07/23 09:42:13;;;;;;;3.28;1.17;;;20.90;94.40;;;;;;4997803;28;20061;-72
2022/07/23 09:44:46;;;;;;;1.70;1.30;;;21.50;95.40;;;;;;4993585;28;20058;-72
2022/07/23 09:47:12;;;;;;;2.33;1.15;;;20.80;95.10;;;;;;4980967;28;20022;-73
2022/07/23 09:49:37;;;;;;;1.73;1.05;;;21.10;94.80;;;;;;4995708;28;20057;-72
2022/07/23 09:52:03;;;;;;;4.50;1.45;;;21.00;94.80;;;;;;5009893;28;20037;-72
2022/07/23 09:54:34;;;;;;;2.38;1.85;;;21.10;94.60;;;;;;4993676;28;20233;-72
2022/07/23 09:57:07;;;;;;;2.30;1.40;;;21.10;93.60;;;;;;4990938;28;20018;-72
2022/07/23 09:59:36;;;;;;;2.05;1.30;;;20.90;94.70;;;;;;4993786;28;20041;-72
2022/07/23 10:02:04;;;;;;;2.22;1.48;;;21.80;94.80;;;;;;4997292;28;20018;-72
2022/07/23 10:04:31;;;;;;;2.85;1.80;;;21.00;94.60;;;;;;4989402;28;20050;-73
2022/07/23 10:06:59;;;;;;;1.90;1.30;;;21.10;94.30;;;;;;5004333;28;20028;-72
2022/07/23 10:09:31;;;;;;;1.77;1.63;;;21.00;94.20;;;;;;4988284;28;20018;-71
2022/07/23 10:14:32;;;;;;;2.70;1.67;;;21.00;94.40;;;;;;4993755;28;20076;-72
2022/07/23 10:16:58;;;;;;;3.05;1.77;;;21.40;99.90;;;;;;4998469;28;20533;-72
2022/07/23 10:19:24;;;;;;;2.53;1.70;;;21.30;94.20;;;;;;4994824;28;20034;-72
2022/07/23 10:21:57;;;;;;;2.67;1.63;;;21.30;94.30;;;;;;5007434;28;20105;-71
2022/07/23 10:24:41;;;;;;;3.07;1.87;;;21.40;94.50;;;;;;5005293;28;20061;-71
2022/07/23 10:28:04;;;;;;;7.65;1.58;;;21.50;94.60;;;;;;4988887;28;20278;-71
2022/07/23 10:31:13;;;;;;;3.00;1.52;;;21.50;93.40;;;;;;4911232;29;20036;-71
2022/07/23 10:34:02;;;;;;;2.20;1.50;;;21.70;93.20;;;;;;4912054;29;20552;-71
2022/07/23 10:36:39;;;;;;;2.42;1.58;;;21.70;93.10;;;;;;4901400;29;20039;-72
2022/07/23 10:39:14;;;;;;;2.47;1.50;;;21.60;93.80;;;;;;4927386;29;20058;-72
2022/07/23 10:41:41;;;;;;;2.20;1.52;;;21.80;93.40;;;;;;4925355;29;20116;-72
2022/07/23 10:44:16;;;;;;;2.00;1.30;;;23.50;93.60;;;;;;4926621;29;20399;-72
2022/07/23 10:49:40;;;;;;;3.72;2.17;;;22.00;93.20;;;;;;4929101;29;20376;-72
2022/07/23 10:52:14;;;;;;;2.42;1.80;;;22.00;92.50;;;;;;4914034;29;20032;-73
2022/07/23 10:54:41;;;;;;;3.13;1.58;;;22.00;92.70;;;;;;4912796;29;20493;-73
2022/07/23 10:57:09;;;;;;;2.72;1.48;;;22.10;92.10;;;;;;4912413;29;20024;-73
2022/07/23 11:00:11;;;;;;;3.67;2.25;;;22.00;92.20;;;;;;4923072;29;20450;-73
2022/07/23 11:02:39;;;;;;;1.55;1.45;;;22.20;91.60;;;;;;5004900;28;20026;-74
2022/07/23 11:05:10;;;;;;;2.53;1.45;;;22.30;91.90;;;;;;4992277;28;20110;-71
2022/07/23 11:07:37;;;;;;;4.45;1.70;;;22.50;92.20;;;;;;4998619;28;20038;-71
2022/07/23 11:10:03;;;;;;;2.08;1.85;;;22.40;91.80;;;;;;4994589;28;20034;-69
2022/07/23 11:12:29;;;;;;;1.83;1.67;;;22.60;91.70;;;;;;4997512;28;20035;-69
2022/07/23 11:15:08;;;;;;;1.75;1.63;;;22.70;91.40;;;;;;4992080;28;20153;-71
2022/07/23 11:17:54;;;;;;;4.43;1.17;;;22.90;91.90;;;;;;4991714;28;20368;-70
2022/07/23 11:20:22;;;;;;;3.95;1.90;;;22.90;91.80;;;;;;4977067;28;20073;-70
2022/07/23 11:22:54;;;;;;;4.32;1.77;;;23.10;91.30;;;;;;4993497;28;20036;-69
2022/07/23 11:25:22;;;;;;;2.92;1.73;;;22.90;89.90;;;;;;4991179;28;20164;-71
2022/07/23 11:27:50;;;;;;;4.15;1.92;;;22.90;90.40;;;;;;4990788;28;20088;-70
2022/07/23 11:30:27;;;;;;;4.43;1.83;;;23.00;90.40;;;;;;4988875;28;20030;-71
2022/07/23 11:33:08;;;;;;;1.83;1.42;;;22.90;90.80;;;;;;4995009;28;20109;-70
2022/07/23 11:35:39;;;;;;;3.83;1.50;;;23.10;90.00;;;;;;4987608;28;20389;-70
2022/07/23 11:38:13;;;;;;;2.13;1.63;;;23.10;90.80;;;;;;4990853;28;20117;-71
2022/07/23 11:40:39;;;;;;;2.03;1.60;;;23.20;90.30;;;;;;4989914;28;20014;-70
2022/07/23 11:43:09;;;;;;;3.20;1.83;;;23.20;90.00;;;;;;4989634;28;20031;-70
2022/07/23 11:45:38;;;;;;;1.63;1.50;;;23.30;90.00;;;;;;4990341;28;20052;-70
2022/07/23 11:48:05;;;;;;;3.20;1.60;;;23.20;90.00;;;;;;4993010;28;20013;-72
2022/07/23 11:50:31;;;;;;;3.10;1.38;;;23.30;90.00;;;;;;4987434;28;20030;-70
2022/07/23 11:52:57;;;;;;;5.22;1.88;;;24.10;89.70;;;;;;4994211;28;20037;-70
2022/07/23 11:55:23;;;;;;;2.35;1.83;;;23.40;89.20;;;;;;4991434;28;20173;-70
2022/07/23 11:57:52;;;;;;;4.20;2.22;;;23.40;88.90;;;;;;4991516;28;20038;-70
2022/07/23 12:00:21;;;;;;;3.45;1.90;;;23.30;89.00;;;;;;4988496;28;20490;-70
2022/07/23 12:02:50;;;;;;;1.90;1.35;;;23.30;88.70;;;;;;4990200;28;20026;-71
2022/07/23 12:05:18;;;;;;;3.03;1.85;;;23.50;88.80;;;;;;4992757;28;20030;-70
2022/07/23 12:07:49;;;;;;;2.17;1.63;;;23.70;88.70;;;;;;4992729;28;20456;-70
2022/07/23 12:10:37;;;;;;;3.25;1.55;;;23.80;88.20;;;;;;4991428;28;20030;-70
2022/07/23 12:13:06;;;;;;;4.10;1.45;;;25.80;87.40;;;;;;4991766;28;20023;-70
2022/07/23 12:15:40;;;;;;;1.25;1.05;;;23.90;87.90;;;;;;4990840;28;20365;-70
2022/07/23 12:18:08;;;;;;;2.83;1.55;;;23.90;86.30;;;;;;4986734;28;20026;-70
2022/07/23 12:20:43;;;;;;;3.75;1.80;;;24.00;87.30;;;;;;4995525;28;20034;-70
2022/07/23 12:23:10;;;;;;;2.85;1.67;;;24.00;85.40;;;;;;4994840;28;20041;-70
2022/07/23 12:25:38;;;;;;;4.93;2.15;;;24.10;87.20;;;;;;5001125;28;20042;-70
2022/07/23 12:28:06;;;;;;;4.53;2.45;;;24.20;87.20;;;;;;5001804;28;20467;-70
2022/07/23 12:30:43;;;;;;;2.45;2.25;;;24.10;86.00;;;;;;4992726;28;20478;-70
2022/07/23 12:33:11;;;;;;;5.40;1.67;;;24.10;85.40;;;;;;4991563;28;20050;-70
2022/07/23 12:35:41;;;;;;;5.68;1.77;;;24.10;87.10;;;;;;5004402;28;20072;-70
2022/07/23 12:38:12;;;;;;;2.50;1.92;;;24.20;87.10;;;;;;5003705;28;20577;-70
2022/07/23 12:40:53;;;;;;;2.53;2.00;;;24.40;86.80;;;;;;4991540;28;20026;-71
2022/07/23 12:43:25;;;;;;;2.10;1.80;;;24.50;85.00;;;;;;4985012;28;20014;-70
2022/07/23 12:46:01;;;;;;;2.78;2.00;;;24.40;86.10;;;;;;4998385;28;20018;-70
2022/07/23 12:48:28;;;;;;;3.58;2.10;;;24.50;84.10;;;;;;4989340;28;20038;-70
2022/07/23 12:51:00;;;;;;;1.92;1.50;;;25.30;85.50;;;;;;4992000;28;20018;-69
2022/07/23 12:53:29;;;;;;;3.80;1.80;;;24.70;82.60;;;;;;4991196;28;20046;-69
2022/07/23 12:56:31;;;;;;;1.95;1.42;;;24.70;85.30;;;;;;4989328;28;20102;-70
2022/07/23 12:59:03;;;;;;;2.55;1.38;;;24.70;84.60;;;;;;4990262;28;20042;-70
2022/07/23 13:01:33;;;;;;;2.72;1.92;;;24.80;84.00;;;;;;4991679;28;20034;-70
2022/07/23 13:04:02;;;;;;;3.40;1.95;;;24.80;83.00;;;;;;4992177;28;20034;-71